Terminal Aerodrome Forecast
Issued by NWS

Home | Current Version | Previous Version | Text Only | Print | Product List | Glossary On
Versions: 1 2 3 4 5 6 7 8 9 10 11 12 13 14 15 16 17 18 19 20 21 22 23 24
276
FTUS43 KAPX 240520
TAFAPN
TAF
KAPN 240520Z 2406/2506 01004KT P6SM VCSH OVC035
     FM240900 04005KT 6SM -SN OVC030
     FM241200 07008KT 3SM -SN OVC008
     FM241500 07014G24KT 3SM -RA OVC006
     FM250200 05006KT 2SM -DZ BR OVC003=

USA.gov is the U.S. government's official web portal to all federal, state and local government web resources and services.